createdAt,value
2019-04-10T00:01:20.549Z,56.73
2019-04-10T00:03:46.974Z,48.10
2019-04-10T00:06:16.628Z,49.73
2019-04-10T00:08:42.185Z,43.90
2019-04-10T00:11:08.614Z,49.20
2019-04-10T00:13:34.949Z,45.30
2019-04-10T00:16:01.610Z,49.53
2019-04-10T00:18:27.957Z,49.13
2019-04-10T00:20:54.745Z,47.70
2019-04-10T00:23:21.394Z,48.97
2019-04-10T00:25:49.171Z,42.70
2019-04-10T00:28:15.594Z,49.63
2019-04-10T00:30:43.042Z,46.70
2019-04-10T00:33:10.258Z,50.20
2019-04-10T00:35:37.216Z,47.90
2019-04-10T00:38:03.774Z,47.90
2019-04-10T00:40:31.069Z,49.60
2019-04-10T00:42:58.640Z,40.70
2019-04-10T00:45:25.427Z,41.73
2019-04-10T00:47:53.122Z,44.13
2019-04-10T00:50:20.246Z,42.50
2019-04-10T00:52:46.666Z,47.43
2019-04-10T00:55:13.335Z,50.43
2019-04-10T00:57:39.614Z,39.60
2019-04-10T01:00:06.553Z,47.77
2019-04-10T01:02:32.990Z,47.90
2019-04-10T01:05:00.517Z,45.43
2019-04-10T01:07:36.628Z,41.10
2019-04-10T01:09:55.589Z,48.90
2019-04-10T01:12:22.124Z,40.87
2019-04-10T01:14:48.444Z,49.03
2019-04-10T01:17:18.109Z,48.30
2019-04-10T01:19:44.580Z,46.83
2019-04-10T01:22:11.267Z,43.37
2019-04-10T01:24:37.895Z,46.43
2019-04-10T01:27:04.545Z,52.93
2019-04-10T01:29:30.868Z,44.23
2019-04-10T01:31:57.363Z,41.60
2019-04-10T01:34:23.630Z,51.13
2019-04-10T01:36:49.944Z,42.40
2019-04-10T01:39:18.162Z,47.70
2019-04-10T01:41:44.498Z,44.20
2019-04-10T01:44:11.134Z,43.10
2019-04-10T01:46:38.138Z,49.43
2019-04-10T01:49:05.203Z,45.33
2019-04-10T01:51:33.007Z,44.30
2019-04-10T01:54:00.522Z,40.80
2019-04-10T01:56:31.480Z,40.97
2019-04-10T01:58:55.202Z,49.43
2019-04-10T02:01:24.150Z,50.70
2019-04-10T02:03:50.662Z,55.27
2019-04-10T02:06:16.961Z,45.53
2019-04-10T02:08:43.627Z,46.93
2019-04-10T02:11:10.264Z,52.57
2019-04-10T02:13:36.918Z,50.60
2019-04-10T02:16:04.313Z,49.63
2019-04-10T02:18:30.668Z,41.57
2019-04-10T02:20:57.026Z,46.43
2019-04-10T02:23:23.660Z,50.17
2019-04-10T02:25:50.318Z,40.20
2019-04-10T02:28:18.592Z,45.90
2019-04-10T02:30:45.995Z,41.57
2019-04-10T02:33:13.949Z,43.17
2019-04-10T02:35:40.506Z,39.03
2019-04-10T02:38:26.152Z,48.33
2019-04-10T02:40:35.092Z,51.17
2019-04-10T02:43:03.289Z,43.33
2019-04-10T02:45:30.211Z,47.90
2019-04-10T02:47:56.702Z,42.27
2019-04-10T02:50:25.314Z,43.00
2019-04-10T02:52:51.970Z,45.20
2019-04-10T02:55:18.769Z,48.83
2019-04-10T02:57:46.859Z,45.13
2019-04-10T03:00:14.212Z,45.53
2019-04-10T03:02:41.617Z,42.03
2019-04-10T03:05:09.854Z,58.33
2019-04-10T03:07:36.419Z,63.80
2019-04-10T03:10:17.585Z,44.60
2019-04-10T03:12:36.194Z,47.57
2019-04-10T03:15:05.886Z,42.73
2019-04-10T03:17:33.275Z,55.10
2019-04-10T03:20:00.315Z,46.33
2019-04-10T03:22:27.588Z,42.57
2019-04-10T03:24:54.750Z,43.80
2019-04-10T03:27:22.624Z,45.57
2019-04-10T03:29:49.422Z,47.37
2019-04-10T03:32:36.588Z,44.50
2019-04-10T03:35:24.857Z,47.47
2019-04-10T03:37:51.557Z,46.10
2019-04-10T03:40:18.195Z,46.77
2019-04-10T03:42:45.416Z,43.10
2019-04-10T03:45:11.995Z,45.10
2019-04-10T03:47:39.656Z,41.13
2019-04-10T03:50:06.809Z,47.03
2019-04-10T03:52:33.580Z,40.57
2019-04-10T03:55:00.698Z,42.40
2019-04-10T03:57:27.180Z,45.13
2019-04-10T03:59:53.842Z,39.70
2019-04-10T04:02:40.203Z,45.97
2019-04-10T04:05:06.657Z,47.53
2019-04-10T04:07:33.304Z,43.00
2019-04-10T04:10:00.200Z,46.23
2019-04-10T04:12:26.785Z,53.87
2019-04-10T04:14:53.427Z,43.47
2019-04-10T04:17:20.065Z,51.50
2019-04-10T04:19:46.484Z,50.00
2019-04-10T04:22:12.816Z,49.00
2019-04-10T04:24:40.003Z,49.63
2019-04-10T04:27:06.918Z,47.23
2019-04-10T04:29:34.421Z,48.27
2019-04-10T04:32:01.195Z,53.13
2019-04-10T04:34:29.174Z,47.30
2019-04-10T04:36:55.953Z,44.37
2019-04-10T04:39:26.782Z,47.70
2019-04-10T04:41:50.563Z,43.27
2019-04-10T04:44:18.005Z,40.50
2019-04-10T04:46:44.991Z,43.47
2019-04-10T04:49:11.770Z,49.13
2019-04-10T04:51:38.435Z,39.57
2019-04-10T04:54:04.766Z,43.93
2019-04-10T04:56:31.777Z,36.97
2019-04-10T04:58:59.448Z,40.30
2019-04-10T05:01:25.918Z,43.13
2019-04-10T05:03:52.633Z,38.27
2019-04-10T05:06:22.290Z,38.53
2019-04-10T05:08:48.688Z,43.50
2019-04-10T05:11:16.172Z,38.83
2019-04-10T05:13:42.533Z,36.33
2019-04-10T05:16:08.856Z,36.27
2019-04-10T05:18:35.308Z,42.73
2019-04-10T05:21:01.670Z,35.80
2019-04-10T05:23:28.828Z,39.17
2019-04-10T05:25:56.115Z,38.17
2019-04-10T05:28:24.207Z,35.40
2019-04-10T05:30:51.008Z,28.93
2019-04-10T05:33:17.550Z,33.93
2019-04-10T05:35:43.960Z,37.20
2019-04-10T05:38:10.346Z,33.93
2019-04-10T05:40:36.754Z,35.73
2019-04-10T05:43:03.712Z,32.20
2019-04-10T05:45:30.530Z,28.20
2019-04-10T05:47:57.010Z,30.67
2019-04-10T05:50:23.755Z,32.90
2019-04-10T05:52:50.439Z,26.47
2019-04-10T05:55:16.781Z,31.93
2019-04-10T05:57:43.100Z,26.33
2019-04-10T06:00:10.492Z,32.30
2019-04-10T06:02:36.858Z,27.80
2019-04-10T06:05:05.651Z,34.53
2019-04-10T06:07:32.879Z,25.30
2019-04-10T06:10:04.538Z,28.33
2019-04-10T06:12:28.567Z,30.83
2019-04-10T06:14:56.669Z,31.90
2019-04-10T06:17:23.238Z,30.10
2019-04-10T06:19:50.972Z,28.00
2019-04-10T06:22:18.619Z,29.50
2019-04-10T06:24:45.078Z,28.50
2019-04-10T06:27:12.274Z,24.17
2019-04-10T06:29:39.308Z,26.10
2019-04-10T06:32:05.742Z,29.77
2019-04-10T06:34:32.314Z,31.03
2019-04-10T06:36:59.822Z,29.10
2019-04-10T06:39:26.918Z,27.63
2019-04-10T06:41:53.472Z,27.00
2019-04-10T06:44:19.816Z,24.87
2019-04-10T06:46:46.529Z,27.23
2019-04-10T06:49:14.481Z,33.17
2019-04-10T06:51:41.340Z,25.33
2019-04-10T06:54:11.219Z,25.77
2019-04-10T06:56:37.437Z,28.73
2019-04-10T06:59:04.564Z,31.63
2019-04-10T07:01:40.506Z,21.27
2019-04-10T07:04:04.103Z,26.43
2019-04-10T07:06:50.258Z,23.00
2019-04-10T07:09:09.551Z,23.20
2019-04-10T07:11:38.648Z,26.57
2019-04-10T07:14:05.021Z,17.00
2019-04-10T07:16:34.075Z,17.33
2019-04-10T07:19:04.331Z,16.33
2019-04-10T07:21:30.734Z,19.30
2019-04-10T07:24:03.385Z,17.83
2019-04-10T07:26:35.452Z,22.20
2019-04-10T07:28:57.626Z,17.93
2019-04-10T07:31:23.490Z,18.30
2019-04-10T07:33:51.719Z,18.50
2019-04-10T07:36:19.038Z,17.10
2019-04-10T07:38:45.368Z,19.23
2019-04-10T07:41:19.402Z,18.10
2019-04-10T07:43:40.611Z,16.80
2019-04-10T07:46:07.035Z,20.90
2019-04-10T07:48:33.540Z,14.50
2019-04-10T07:51:00.609Z,17.30
2019-04-10T07:53:27.000Z,14.90
2019-04-10T07:56:01.237Z,15.60
2019-04-10T07:58:21.948Z,13.53
2019-04-10T08:00:49.771Z,16.93
2019-04-10T08:03:16.740Z,12.07
2019-04-10T08:05:44.019Z,14.40
2019-04-10T08:08:10.661Z,13.80
2019-04-10T08:10:37.020Z,15.90
2019-04-10T08:13:04.561Z,20.30
2019-04-10T08:15:31.588Z,17.87
2019-04-10T08:17:58.328Z,13.57
2019-04-10T08:20:24.803Z,20.93
2019-04-10T08:22:51.256Z,15.00
2019-04-10T08:25:18.433Z,12.90
2019-04-10T08:27:46.001Z,20.83
2019-04-10T08:30:12.962Z,15.10
2019-04-10T08:32:51.434Z,14.00
2019-04-10T08:35:09.074Z,19.03
2019-04-10T08:37:36.918Z,13.63
2019-04-10T08:40:07.458Z,15.50
2019-04-10T08:42:34.884Z,16.67
2019-04-10T08:45:04.988Z,14.10
2019-04-10T08:47:32.026Z,18.33
2019-04-10T08:49:59.359Z,15.77
2019-04-10T08:52:25.701Z,14.80
2019-04-10T08:54:53.218Z,16.27
2019-04-10T08:57:19.707Z,16.10
2019-04-10T08:59:47.205Z,13.93
2019-04-10T09:02:14.422Z,14.03
2019-04-10T09:04:41.320Z,16.83
2019-04-10T09:07:08.309Z,18.63
2019-04-10T09:09:35.152Z,12.53
2019-04-10T09:12:01.836Z,17.13
2019-04-10T09:14:29.299Z,27.87
2019-04-10T09:16:56.050Z,17.10
2019-04-10T09:19:22.353Z,17.87
2019-04-10T09:21:49.892Z,19.03
2019-04-10T09:24:17.401Z,16.27
2019-04-10T09:26:44.527Z,15.47
2019-04-10T09:29:11.902Z,17.30
2019-04-10T09:31:38.581Z,12.03
2019-04-10T09:34:06.252Z,16.07
2019-04-10T09:36:33.313Z,16.37
2019-04-10T09:38:59.767Z,13.20
2019-04-10T09:41:28.029Z,16.33
2019-04-10T09:43:54.712Z,15.00
2019-04-10T09:46:21.048Z,15.40
2019-04-10T09:48:47.670Z,10.87
2019-04-10T09:51:16.832Z,15.33
2019-04-10T09:53:43.355Z,12.57
2019-04-10T09:56:09.966Z,10.87
2019-04-10T09:58:36.832Z,12.43
2019-04-10T10:01:08.235Z,18.60
2019-04-10T10:03:35.134Z,17.93
2019-04-10T10:06:01.814Z,18.03
2019-04-10T10:08:28.889Z,12.20
2019-04-10T10:10:55.633Z,23.17
2019-04-10T10:13:22.056Z,12.00
2019-04-10T10:15:49.418Z,14.90
2019-04-10T10:18:17.120Z,23.90
2019-04-10T10:20:43.952Z,11.33
2019-04-10T10:23:11.708Z,12.57
2019-04-10T10:25:39.364Z,16.10
2019-04-10T10:28:06.905Z,13.90
2019-04-10T10:30:33.697Z,12.03
2019-04-10T10:33:01.483Z,12.93
2019-04-10T10:35:29.292Z,13.13
2019-04-10T10:37:56.856Z,17.80
2019-04-10T10:40:23.505Z,11.13
2019-04-10T10:42:50.448Z,15.27
2019-04-10T10:45:18.752Z,15.60
2019-04-10T10:47:46.414Z,12.43
2019-04-10T10:50:13.502Z,11.33
2019-04-10T10:52:39.934Z,13.20
2019-04-10T10:55:07.616Z,10.47
2019-04-10T10:57:35.347Z,11.87
2019-04-10T11:00:08.763Z,17.63
2019-04-10T11:02:37.862Z,15.30
2019-04-10T11:05:06.903Z,19.80
2019-04-10T11:07:33.095Z,14.53
2019-04-10T11:09:59.443Z,15.20
2019-04-10T11:12:26.349Z,11.90
2019-04-10T11:14:53.733Z,15.03
2019-04-10T11:17:22.149Z,11.80
2019-04-10T11:19:48.873Z,18.77
2019-04-10T11:22:21.821Z,17.23
2019-04-10T11:24:44.523Z,13.13
2019-04-10T11:27:11.862Z,15.07
2019-04-10T11:29:39.004Z,19.80
2019-04-10T11:32:06.795Z,15.73
2019-04-10T11:34:34.094Z,18.97
2019-04-10T11:37:19.211Z,18.33
2019-04-10T11:39:33.032Z,19.17
2019-04-10T11:41:58.854Z,16.30
2019-04-10T11:44:27.445Z,14.87
2019-04-10T11:46:56.758Z,18.03
2019-04-10T11:49:23.836Z,14.77
2019-04-10T11:51:52.710Z,18.30
2019-04-10T11:54:23.537Z,12.93
2019-04-10T11:56:49.131Z,9.67
2019-04-10T11:59:17.680Z,12.03
2019-04-10T12:01:46.228Z,12.77
2019-04-10T12:04:14.117Z,17.40
2019-04-10T12:06:43.245Z,11.30
2019-04-10T12:11:42.763Z,15.23
2019-04-10T12:14:09.189Z,20.47
2019-04-10T12:16:35.592Z,14.47
2019-04-10T12:19:02.741Z,19.33
2019-04-10T12:21:29.770Z,13.07
2019-04-10T12:23:56.942Z,18.23
2019-04-10T12:26:23.521Z,23.60
2019-04-10T12:28:50.273Z,19.10
2019-04-10T12:31:17.689Z,13.10
2019-04-10T12:33:44.405Z,19.30
2019-04-10T12:36:12.046Z,25.80
2019-04-10T12:38:39.520Z,13.63
2019-04-10T12:41:06.882Z,13.57
2019-04-10T12:43:34.705Z,23.80
2019-04-10T12:46:02.461Z,13.17
2019-04-10T12:48:28.796Z,16.70
2019-04-10T12:50:55.191Z,13.23
2019-04-10T12:53:21.596Z,17.70
2019-04-10T12:55:49.426Z,17.57
2019-04-10T12:58:17.728Z,17.07
2019-04-10T13:00:44.571Z,19.50
2019-04-10T13:03:11.313Z,13.50
2019-04-10T13:05:41.029Z,13.83
2019-04-10T13:08:19.055Z,12.97
2019-04-10T13:10:36.335Z,10.93
2019-04-10T13:13:03.990Z,14.37
2019-04-10T13:15:31.884Z,15.40
2019-04-10T13:17:58.510Z,10.13
2019-04-10T13:20:25.958Z,12.20
2019-04-10T13:22:52.634Z,14.60
2019-04-10T13:25:19.059Z,17.60
2019-04-10T13:27:45.886Z,12.93
2019-04-10T13:30:14.673Z,11.63
2019-04-10T13:32:42.316Z,15.00
2019-04-10T13:35:10.328Z,13.30
2019-04-10T13:37:37.828Z,13.17
2019-04-10T13:40:05.952Z,11.37
2019-04-10T13:42:33.463Z,11.67
2019-04-10T13:44:59.952Z,10.60
2019-04-10T13:47:26.319Z,12.00
2019-04-10T13:49:52.638Z,9.20
2019-04-10T13:52:27.907Z,12.07
2019-04-10T13:54:54.753Z,10.30
2019-04-10T13:57:22.248Z,14.73
2019-04-10T13:59:49.091Z,13.80
2019-04-10T14:02:23.638Z,9.87
2019-04-10T14:04:50.073Z,9.60
2019-04-10T14:07:17.928Z,11.00
2019-04-10T14:09:48.909Z,11.77
2019-04-10T14:12:13.000Z,11.23
2019-04-10T14:14:40.459Z,12.63
2019-04-10T14:17:07.046Z,10.83
2019-04-10T14:19:34.003Z,9.73
2019-04-10T14:22:01.697Z,11.33
2019-04-10T14:24:39.255Z,8.80
2019-04-10T14:27:01.743Z,16.43
2019-04-10T14:29:28.405Z,9.67
2019-04-10T14:31:56.706Z,11.23
2019-04-10T14:34:23.053Z,18.73
2019-04-10T14:36:49.748Z,11.70
2019-04-10T14:39:19.626Z,15.07
2019-04-10T14:41:44.690Z,12.20
2019-04-10T14:44:12.435Z,9.73
2019-04-10T14:46:40.046Z,13.97
2019-04-10T14:49:07.047Z,16.40
2019-04-10T14:51:34.612Z,10.13
2019-04-10T14:54:01.721Z,10.93
2019-04-10T14:56:28.378Z,14.67
2019-04-10T14:58:54.983Z,8.63
2019-04-10T15:01:21.960Z,11.83
2019-04-10T15:03:48.744Z,13.00
2019-04-10T15:06:15.500Z,8.63
2019-04-10T15:08:41.975Z,9.70
2019-04-10T15:11:08.691Z,11.13
2019-04-10T15:13:36.121Z,13.13
2019-04-10T15:16:03.142Z,10.83
2019-04-10T15:18:30.847Z,11.50
2019-04-10T15:21:00.625Z,10.53
2019-04-10T15:23:27.549Z,13.63
2019-04-10T15:25:55.410Z,15.17
2019-04-10T15:28:21.875Z,10.10
2019-04-10T15:30:53.005Z,9.60
2019-04-10T15:33:20.540Z,10.10
2019-04-10T15:35:47.183Z,9.03
2019-04-10T15:38:13.802Z,13.63
2019-04-10T15:40:40.350Z,11.10
2019-04-10T15:43:06.922Z,11.47
2019-04-10T15:45:40.143Z,7.93
2019-04-10T15:48:06.478Z,10.30
2019-04-10T15:50:32.976Z,10.60
2019-04-10T15:53:09.644Z,12.77
2019-04-10T15:55:38.142Z,12.73
2019-04-10T15:58:06.721Z,10.50
2019-04-10T16:00:34.978Z,9.07
2019-04-10T16:03:02.971Z,11.27
2019-04-10T16:05:31.992Z,14.30
2019-04-10T16:07:58.718Z,17.30
2019-04-10T16:10:25.286Z,9.27
2019-04-10T16:12:57.585Z,14.10
2019-04-10T16:15:25.062Z,11.83
2019-04-10T16:18:11.391Z,9.20
2019-04-10T16:20:38.936Z,13.20
2019-04-10T16:23:10.071Z,14.00
2019-04-10T16:25:38.127Z,14.97
2019-04-10T16:28:06.296Z,18.87
2019-04-10T16:30:33.123Z,9.80
2019-04-10T16:33:00.817Z,15.47
2019-04-10T16:35:27.762Z,18.90
2019-04-10T16:37:54.100Z,10.73
2019-04-10T16:40:20.850Z,12.60
2019-04-10T16:42:47.380Z,22.13
2019-04-10T16:45:14.203Z,9.33
2019-04-10T16:47:41.957Z,15.83
2019-04-10T16:50:09.150Z,15.17
2019-04-10T16:52:36.786Z,11.97
2019-04-10T16:55:06.260Z,9.00
2019-04-10T16:57:34.583Z,11.40
2019-04-10T17:00:01.160Z,9.57
2019-04-10T17:02:28.404Z,13.50
2019-04-10T17:04:54.930Z,15.37
2019-04-10T17:07:23.070Z,12.77
2019-04-10T17:09:51.442Z,11.70
2019-04-10T17:12:17.906Z,14.10
2019-04-10T17:14:45.690Z,14.10
2019-04-10T17:17:12.515Z,12.10
2019-04-10T17:19:48.783Z,21.27
2019-04-10T17:22:08.856Z,10.40
2019-04-10T17:24:37.589Z,12.97
2019-04-10T17:27:05.051Z,11.03
2019-04-10T17:29:33.406Z,14.27
2019-04-10T17:32:06.865Z,17.03
2019-04-10T17:34:34.738Z,14.77
2019-04-10T17:37:01.290Z,11.97
2019-04-10T17:39:28.323Z,9.47
2019-04-10T17:41:59.914Z,20.50
2019-04-10T17:44:23.611Z,14.80
2019-04-10T17:46:51.291Z,13.37
2019-04-10T17:49:19.252Z,12.47
2019-04-10T17:51:52.396Z,13.03
2019-04-10T17:54:20.008Z,15.43
2019-04-10T17:57:00.343Z,13.27
2019-04-10T17:59:32.442Z,16.30
2019-04-10T18:02:09.503Z,12.90
2019-04-10T18:04:46.270Z,12.00
2019-04-10T18:07:16.430Z,18.80
2019-04-10T18:09:43.710Z,13.17
2019-04-10T18:12:12.319Z,13.90
2019-04-10T18:14:40.688Z,14.17
2019-04-10T18:17:07.917Z,11.83
2019-04-10T18:19:38.603Z,16.40
2019-04-10T18:22:05.367Z,19.90
2019-04-10T18:24:32.458Z,15.07
2019-04-10T18:27:01.272Z,12.73
2019-04-10T18:29:27.462Z,12.93
2019-04-10T18:31:57.377Z,14.57
2019-04-10T18:34:24.876Z,13.83
2019-04-10T18:36:52.448Z,20.70
2019-04-10T18:39:19.491Z,11.17
2019-04-10T18:41:46.659Z,13.40
2019-04-10T18:44:13.529Z,15.80
2019-04-10T18:46:40.165Z,13.57
2019-04-10T18:49:07.380Z,12.53
2019-04-10T18:51:34.131Z,11.83
2019-04-10T18:54:01.741Z,13.20
2019-04-10T18:56:29.221Z,13.60
2019-04-10T18:59:07.953Z,17.13
2019-04-10T19:01:34.840Z,12.37
2019-04-10T19:04:04.172Z,12.50
2019-04-10T19:06:32.694Z,17.87
2019-04-10T19:09:07.697Z,14.43
2019-04-10T19:11:32.447Z,12.27
2019-04-10T19:13:57.571Z,13.47
2019-04-10T19:16:25.488Z,15.07
2019-04-10T19:18:53.769Z,13.27
2019-04-10T19:21:21.754Z,13.07
2019-04-10T19:23:48.272Z,15.07
2019-04-10T19:26:16.674Z,17.50
2019-04-10T19:28:45.094Z,20.50
2019-04-10T19:31:18.922Z,14.90
2019-04-10T19:33:41.617Z,16.80
2019-04-10T19:36:17.196Z,14.03
2019-04-10T19:38:45.940Z,15.00
2019-04-10T19:41:23.214Z,10.63
2019-04-10T19:43:42.717Z,17.83
2019-04-10T19:46:10.541Z,17.67
2019-04-10T19:48:36.993Z,15.30
2019-04-10T19:51:04.478Z,15.13
2019-04-10T19:53:31.158Z,11.90
2019-04-10T19:56:00.224Z,12.10
2019-04-10T19:58:26.229Z,14.20
2019-04-10T20:00:52.749Z,20.93
2019-04-10T20:03:19.576Z,19.93
2019-04-10T20:05:46.229Z,18.90
2019-04-10T20:08:13.273Z,26.43
2019-04-10T20:10:39.927Z,16.80
2019-04-10T20:13:06.953Z,16.57
2019-04-10T20:15:34.202Z,20.10
2019-04-10T20:18:02.027Z,16.60
2019-04-10T20:20:35.255Z,19.57
2019-04-10T20:23:02.626Z,21.23
2019-04-10T20:25:31.125Z,14.07
2019-04-10T20:27:58.515Z,15.80
2019-04-10T20:30:27.970Z,14.17
2019-04-10T20:32:54.493Z,12.17
2019-04-10T20:35:22.375Z,11.60
2019-04-10T20:37:49.151Z,11.37
2019-04-10T20:40:15.943Z,11.23
2019-04-10T20:42:44.518Z,13.33
2019-04-10T20:45:11.395Z,10.43
2019-04-10T20:47:39.315Z,19.33
2019-04-10T20:50:06.239Z,12.40
2019-04-10T20:52:32.811Z,10.23
2019-04-10T20:54:59.713Z,12.80
2019-04-10T20:57:26.366Z,14.63
2019-04-10T20:59:53.244Z,11.50
2019-04-10T21:02:20.343Z,14.07
2019-04-10T21:04:55.558Z,11.10
2019-04-10T21:07:15.006Z,16.27
2019-04-10T21:09:41.736Z,17.03
2019-04-10T21:12:13.028Z,13.47
2019-04-10T21:14:37.998Z,17.63
2019-04-10T21:17:04.730Z,16.03
2019-04-10T21:19:31.335Z,14.10
2019-04-10T21:21:57.691Z,12.50
2019-04-10T21:24:25.298Z,15.43
2019-04-10T21:26:52.749Z,15.13
2019-04-10T21:29:38.382Z,12.43
2019-04-10T21:32:07.308Z,12.30
2019-04-10T21:34:36.932Z,14.33
2019-04-10T21:37:03.818Z,14.20
2019-04-10T21:39:30.223Z,17.67
2019-04-10T21:42:08.439Z,12.23
2019-04-10T21:44:25.341Z,16.80
2019-04-10T21:46:52.925Z,18.33
2019-04-10T21:49:19.913Z,16.93
2019-04-10T21:51:46.277Z,13.10
2019-04-10T21:54:12.620Z,11.97
2019-04-10T21:56:39.269Z,16.40
2019-04-10T21:59:05.679Z,17.30
2019-04-10T22:01:32.516Z,12.10
2019-04-10T22:04:00.550Z,12.83
2019-04-10T22:06:28.044Z,16.67
2019-04-10T22:09:02.438Z,17.43
2019-04-10T22:11:30.844Z,11.90
2019-04-10T22:13:57.187Z,13.67
2019-04-10T22:16:26.238Z,21.13
2019-04-10T22:18:52.696Z,15.90
2019-04-10T22:21:19.359Z,13.73
2019-04-10T22:23:46.963Z,19.50
2019-04-10T22:26:13.844Z,12.40
2019-04-10T22:28:43.442Z,12.27
2019-04-10T22:31:10.335Z,14.17
2019-04-10T22:33:36.823Z,13.97
2019-04-10T22:36:04.384Z,12.50
2019-04-10T22:38:30.908Z,16.00
2019-04-10T22:40:58.103Z,14.13
2019-04-10T22:43:24.727Z,12.47
2019-04-10T22:45:51.016Z,12.27
2019-04-10T22:48:17.376Z,16.20
2019-04-10T22:50:43.679Z,16.50
2019-04-10T22:53:10.378Z,13.27
2019-04-10T22:55:36.784Z,11.40
2019-04-10T22:58:04.418Z,12.60
2019-04-10T23:00:32.421Z,12.57
2019-04-10T23:02:59.219Z,20.93
2019-04-10T23:05:26.845Z,13.27
2019-04-10T23:07:53.475Z,15.17
2019-04-10T23:10:21.190Z,13.07
2019-04-10T23:12:54.926Z,11.13
2019-04-10T23:15:15.931Z,17.13
2019-04-10T23:17:43.187Z,16.17
2019-04-10T23:20:10.959Z,14.00
2019-04-10T23:22:37.647Z,12.30
2019-04-10T23:25:06.127Z,12.63
2019-04-10T23:27:33.549Z,13.33
2019-04-10T23:30:00.318Z,16.33
2019-04-10T23:32:27.095Z,11.57
2019-04-10T23:34:54.752Z,18.37
2019-04-10T23:37:22.545Z,16.70
2019-04-10T23:39:48.984Z,16.33
2019-04-10T23:42:15.333Z,10.70
2019-04-10T23:44:42.927Z,14.40
2019-04-10T23:47:09.663Z,15.97
2019-04-10T23:49:37.385Z,13.00
2019-04-10T23:52:03.776Z,10.87
2019-04-10T23:54:30.457Z,15.40
2019-04-10T23:56:57.080Z,13.83
2019-04-10T23:59:23.736Z,17.23
